Coober Pedy, Australia
Current Conditions -  °F | °C
As of 12:00 PM on Thursday 23 Oct 2014 (Local Time) from YCBP Reporting Station
Clear Clear  
Wind Chill: 91°   Ceiling: Unl
Heat Index: 91°   Visibility: NA
Dew Point: 41°   Wind: 10mph
Humidity: 17%   Direction: 50°NE
Pressure: 29.97"   Gusts: NA
Location:  29.01°S, 134.75°E
Report Text: YCBP 230200Z AUTO 05009KT //// // NCD 33/05 Q1015
Loading
Personal Weather Stations






























Interactive Weather Map
Tropical Storm Tracking
New forecast layout! Learn more

10-Day Weather Forecast

Advertisements
Track Severe Weather on mobile